Time;durP1;ratioP1;P1;durP2;ratioP2;P2;SDS_P1;SDS_P2;PMS_P1;PMS_P2;Temp;Humidity;BMP_temperature;BMP_pressure;BME280_temperature;BME280_humidity;BME280_pressure;Samples;Min_cycle;Max_cycle;Signal;HPM_P1;HPM_P2
2023/11/04 00:00:11;;;;;;;2.67;1.93;;;13.10;92.90;;;;;;4973724;28;20531;-72
2023/11/04 00:02:38;;;;;;;4.13;2.50;;;13.10;92.90;;;;;;4998609;28;20464;-72
2023/11/04 00:05:07;;;;;;;2.33;2.13;;;13.10;92.90;;;;;;4976836;28;20803;-72
2023/11/04 00:07:33;;;;;;;2.37;2.17;;;13.10;92.90;;;;;;4999195;28;20416;-72
2023/11/04 00:09:59;;;;;;;2.20;2.00;;;13.10;92.90;;;;;;4982306;28;20444;-73
2023/11/04 00:12:28;;;;;;;2.63;2.10;;;13.10;92.90;;;;;;5000141;28;20447;-72
2023/11/04 00:14:54;;;;;;;2.67;2.30;;;13.10;92.90;;;;;;4973967;28;21314;-73
2023/11/04 00:17:22;;;;;;;3.67;2.43;;;13.10;93.00;;;;;;4982152;28;20452;-73
2023/11/04 00:19:48;;;;;;;2.30;2.10;;;13.10;93.00;;;;;;4998027;28;20436;-73
2023/11/04 00:22:14;;;;;;;2.17;1.80;;;13.10;92.90;;;;;;4997576;28;20455;-73
2023/11/04 00:24:40;;;;;;;3.00;1.80;;;13.10;93.00;;;;;;4998329;28;20495;-72
2023/11/04 00:27:06;;;;;;;3.90;2.53;;;13.10;93.00;;;;;;4982465;28;20451;-73
2023/11/04 00:29:33;;;;;;;2.80;2.33;;;13.10;93.00;;;;;;4999576;28;20430;-72
2023/11/04 00:32:00;;;;;;;2.40;2.13;;;13.00;93.00;;;;;;4981308;28;20487;-72
2023/11/04 00:34:46;;;;;;;2.73;1.87;;;13.00;93.00;;;;;;4962852;28;20447;-73
2023/11/04 00:37:33;;;;;;;3.23;2.40;;;13.00;93.00;;;;;;4984139;28;20428;-73
2023/11/04 00:40:19;;;;;;;3.20;2.43;;;13.00;93.00;;;;;;4969011;28;20466;-72
2023/11/04 00:43:08;;;;;;;3.53;2.43;;;13.00;93.00;;;;;;4976527;28;20558;-73
2023/11/04 00:45:54;;;;;;;3.10;2.30;;;13.00;93.00;;;;;;4972344;28;20527;-73
2023/11/04 00:48:43;;;;;;;2.50;2.00;;;13.00;93.00;;;;;;4996068;28;20510;-72
2023/11/04 00:51:29;;;;;;;2.97;2.10;;;13.00;93.10;;;;;;4984120;28;21517;-72
2023/11/04 00:54:15;;;;;;;3.57;2.33;;;13.00;93.10;;;;;;4978135;28;20453;-72
2023/11/04 00:57:01;;;;;;;2.60;2.20;;;13.00;93.10;;;;;;4997174;28;20428;-73
2023/11/04 00:59:47;;;;;;;2.07;1.90;;;13.00;93.10;;;;;;4984033;28;20510;-72
2023/11/04 01:02:34;;;;;;;4.60;2.10;;;12.90;93.00;;;;;;4962021;28;20490;-72
2023/11/04 01:05:20;;;;;;;3.13;2.00;;;13.00;93.10;;;;;;4983750;28;20477;-72
2023/11/04 01:08:09;;;;;;;2.30;2.10;;;13.00;93.10;;;;;;4977227;28;21286;-72
2023/11/04 01:10:58;;;;;;;3.17;2.33;;;12.90;93.10;;;;;;4984288;28;20442;-72
2023/11/04 01:13:48;;;;;;;3.27;2.07;;;13.00;93.10;;;;;;4983768;28;20575;-73
2023/11/04 01:16:36;;;;;;;3.20;2.10;;;13.00;93.10;;;;;;4996679;28;20539;-73
2023/11/04 01:19:23;;;;;;;2.00;1.80;;;13.00;93.10;;;;;;4975955;28;20440;-72
2023/11/04 01:22:10;;;;;;;3.77;2.00;;;13.00;93.00;;;;;;4970019;28;20455;-73
2023/11/04 01:24:56;;;;;;;2.10;1.90;;;13.00;93.10;;;;;;4988721;28;20790;-73
2023/11/04 01:27:42;;;;;;;2.50;2.30;;;12.90;93.00;;;;;;4967711;28;20501;-73
2023/11/04 01:30:33;;;;;;;1.90;1.70;;;13.00;93.00;;;;;;4996596;28;20436;-72
2023/11/04 01:33:20;;;;;;;2.90;2.00;;;13.00;93.00;;;;;;4953813;28;20535;-72
2023/11/04 01:36:07;;;;;;;3.67;2.37;;;13.00;93.00;;;;;;4970258;28;20482;-72
2023/11/04 01:38:53;;;;;;;2.17;1.97;;;12.90;93.00;;;;;;4968024;28;20443;-72
2023/11/04 01:41:41;;;;;;;2.53;1.93;;;12.90;93.00;;;;;;4989563;28;20464;-73
2023/11/04 01:44:27;;;;;;;3.17;1.73;;;12.90;93.00;;;;;;4984675;28;20481;-73
2023/11/04 01:47:16;;;;;;;2.80;2.07;;;12.90;93.00;;;;;;4958478;28;20984;-72
2023/11/04 01:50:03;;;;;;;1.93;1.77;;;12.90;93.00;;;;;;4953902;28;20913;-72
2023/11/04 01:52:52;;;;;;;1.77;1.60;;;12.90;92.90;;;;;;4976675;28;20474;-72
2023/11/04 01:55:42;;;;;;;2.03;1.70;;;12.90;92.90;;;;;;4977335;28;20550;-76
2023/11/04 01:58:34;;;;;;;1.53;1.43;;;12.90;92.90;;;;;;4997268;28;21045;-72
2023/11/04 02:01:21;;;;;;;1.57;1.47;;;12.90;92.90;;;;;;4982743;28;20449;-72
2023/11/04 02:04:07;;;;;;;1.70;1.60;;;12.90;92.90;;;;;;4977512;28;20486;-74
2023/11/04 02:06:53;;;;;;;1.57;1.30;;;12.90;92.90;;;;;;4989923;28;21025;-75
2023/11/04 02:09:39;;;;;;;1.80;1.70;;;12.90;92.90;;;;;;4975670;28;20456;-75
2023/11/04 02:12:28;;;;;;;1.50;1.40;;;12.90;92.90;;;;;;4996973;28;20551;-75
2023/11/04 02:15:17;;;;;;;1.87;1.77;;;12.90;92.90;;;;;;4964670;28;20443;-73
2023/11/04 02:18:05;;;;;;;1.70;1.60;;;12.90;92.90;;;;;;4976249;28;20560;-75
2023/11/04 02:20:52;;;;;;;2.57;1.63;;;12.90;92.80;;;;;;4989014;28;20475;-75
2023/11/04 02:23:39;;;;;;;2.30;1.30;;;12.90;92.90;;;;;;4983759;28;20554;-75
2023/11/04 02:26:27;;;;;;;1.60;1.50;;;12.90;92.80;;;;;;4977052;28;20519;-75
2023/11/04 02:29:15;;;;;;;1.70;1.60;;;12.80;92.80;;;;;;4964635;28;20747;-76
2023/11/04 02:32:04;;;;;;;1.90;1.70;;;12.80;92.80;;;;;;4976592;28;20490;-75
2023/11/04 02:34:50;;;;;;;1.90;1.67;;;12.90;92.90;;;;;;4983974;28;21207;-75
2023/11/04 02:37:38;;;;;;;2.37;1.67;;;12.90;92.90;;;;;;4997040;28;20438;-75
2023/11/04 02:40:28;;;;;;;1.40;1.30;;;12.90;92.90;;;;;;4996592;28;20439;-75
2023/11/04 02:43:14;;;;;;;1.80;1.37;;;12.80;92.80;;;;;;4977535;28;20511;-75
2023/11/04 02:46:03;;;;;;;1.40;1.30;;;12.80;92.80;;;;;;4983362;28;21091;-75
2023/11/04 02:48:49;;;;;;;1.57;1.30;;;12.80;92.80;;;;;;4972148;28;20422;-75
2023/11/04 02:51:34;;;;;;;1.50;1.40;;;12.90;92.80;;;;;;4985610;28;20503;-75
2023/11/04 02:54:23;;;;;;;1.40;1.30;;;12.90;92.80;;;;;;4974736;28;20436;-76
2023/11/04 02:57:12;;;;;;;1.33;1.23;;;12.90;92.80;;;;;;4981282;28;20762;-75
2023/11/04 02:59:58;;;;;;;1.30;1.20;;;12.90;92.80;;;;;;4997890;28;20519;-75
2023/11/04 03:02:44;;;;;;;1.50;1.40;;;12.80;92.80;;;;;;4985301;28;21332;-76
2023/11/04 03:05:30;;;;;;;2.83;1.43;;;12.80;93.20;;;;;;4978640;28;20522;-75
2023/11/04 03:08:18;;;;;;;1.20;1.10;;;12.80;92.80;;;;;;4981467;28;20519;-76
2023/11/04 03:11:04;;;;;;;1.37;1.27;;;12.80;92.80;;;;;;4980239;28;20452;-75
2023/11/04 03:13:55;;;;;;;1.53;1.43;;;12.80;92.80;;;;;;4986410;28;20545;-75
2023/11/04 03:16:46;;;;;;;1.77;1.40;;;12.80;92.80;;;;;;4987007;28;20542;-76
2023/11/04 03:19:33;;;;;;;1.43;1.33;;;12.80;92.90;;;;;;5000344;28;20713;-76
2023/11/04 03:22:19;;;;;;;1.40;1.30;;;12.80;92.90;;;;;;4992423;28;20988;-75
2023/11/04 03:25:05;;;;;;;1.60;1.50;;;12.80;92.80;;;;;;4973225;28;20430;-76
2023/11/04 03:27:51;;;;;;;1.50;1.30;;;12.80;92.90;;;;;;4986206;28;20460;-75
2023/11/04 03:30:37;;;;;;;1.33;1.23;;;12.80;92.90;;;;;;4999793;28;20548;-75
2023/11/04 03:33:23;;;;;;;1.33;1.10;;;12.80;92.90;;;;;;4987072;28;20467;-76
2023/11/04 03:36:09;;;;;;;1.50;1.40;;;12.80;92.90;;;;;;4965083;28;20469;-76
2023/11/04 03:38:55;;;;;;;1.60;1.50;;;12.80;92.90;;;;;;4987256;28;20491;-75
2023/11/04 03:41:41;;;;;;;1.20;1.20;;;12.80;92.90;;;;;;4984140;28;20471;-76
2023/11/04 03:44:27;;;;;;;1.50;1.40;;;12.80;92.90;;;;;;4985764;28;20471;-75
2023/11/04 03:47:13;;;;;;;1.40;1.30;;;12.80;92.90;;;;;;4973211;28;20463;-75
2023/11/04 03:49:59;;;;;;;1.60;1.50;;;12.80;92.90;;;;;;4987671;28;20432;-75
2023/11/04 03:52:47;;;;;;;1.30;1.20;;;12.80;92.90;;;;;;5000637;28;21221;-75
2023/11/04 03:55:36;;;;;;;1.00;1.00;;;12.80;93.00;;;;;;5000174;28;20454;-75
2023/11/04 03:58:24;;;;;;;1.30;1.20;;;12.80;93.10;;;;;;4990909;28;20451;-75
2023/11/04 04:01:12;;;;;;;1.43;1.33;;;12.80;93.00;;;;;;4979382;28;20842;-72
2023/11/04 04:04:02;;;;;;;1.57;1.47;;;12.80;93.00;;;;;;4983250;28;20480;-72
2023/11/04 04:06:50;;;;;;;1.50;1.40;;;12.80;93.10;;;;;;4999953;28;20523;-72
2023/11/04 04:09:39;;;;;;;1.53;1.40;;;12.80;93.10;;;;;;4996244;28;21174;-72
2023/11/04 04:12:27;;;;;;;2.03;1.20;;;12.80;93.00;;;;;;4973980;28;20498;-72
2023/11/04 04:15:13;;;;;;;1.37;1.27;;;12.80;93.00;;;;;;4987729;28;20797;-72
2023/11/04 04:17:59;;;;;;;1.40;1.30;;;12.80;93.00;;;;;;4998861;28;20436;-72
2023/11/04 04:20:49;;;;;;;1.40;1.30;;;12.80;93.00;;;;;;4998688;28;20440;-72
2023/11/04 04:23:35;;;;;;;1.27;1.17;;;12.80;93.00;;;;;;4987373;28;20491;-72
2023/11/04 04:26:23;;;;;;;1.47;1.37;;;12.80;93.10;;;;;;4998853;28;20441;-72
2023/11/04 04:29:12;;;;;;;1.43;1.33;;;12.80;93.10;;;;;;4999125;28;20441;-72
2023/11/04 04:31:58;;;;;;;1.60;1.50;;;12.80;93.10;;;;;;4971027;28;20455;-72
2023/11/04 04:34:47;;;;;;;1.60;1.50;;;12.80;93.10;;;;;;4985157;28;21359;-72
2023/11/04 04:37:38;;;;;;;1.77;1.67;;;12.80;93.10;;;;;;4971759;28;20431;-72
2023/11/04 04:40:25;;;;;;;2.30;1.57;;;12.80;93.20;;;;;;4985481;28;20447;-72
2023/11/04 04:43:11;;;;;;;1.33;1.30;;;12.80;93.20;;;;;;4998874;28;20534;-72
2023/11/04 04:46:02;;;;;;;1.40;1.30;;;12.80;93.20;;;;;;4977421;28;20455;-73
2023/11/04 04:48:51;;;;;;;1.40;1.30;;;12.80;93.30;;;;;;4985619;28;21007;-72
2023/11/04 04:51:37;;;;;;;1.40;1.30;;;12.80;93.20;;;;;;4962633;28;20442;-72
2023/11/04 04:54:25;;;;;;;1.33;1.23;;;12.80;93.20;;;;;;4979590;28;20438;-72
2023/11/04 04:57:11;;;;;;;1.40;1.30;;;12.80;93.30;;;;;;4978532;28;20506;-72
2023/11/04 04:59:57;;;;;;;2.47;2.27;;;12.80;93.30;;;;;;4982258;28;20424;-72
2023/11/04 05:02:43;;;;;;;1.27;1.23;;;12.80;93.30;;;;;;4990394;28;20486;-72
2023/11/04 05:05:28;;;;;;;1.70;1.60;;;12.80;93.30;;;;;;4990755;28;21010;-72
2023/11/04 05:08:16;;;;;;;1.90;1.80;;;12.80;93.30;;;;;;4992119;28;20419;-72
2023/11/04 05:11:02;;;;;;;1.57;1.47;;;12.80;93.30;;;;;;4977434;28;20440;-72
2023/11/04 05:13:49;;;;;;;1.60;1.50;;;12.80;93.30;;;;;;4990012;28;20825;-72
2023/11/04 05:16:37;;;;;;;1.43;1.33;;;12.70;93.30;;;;;;4970558;28;20464;-72
2023/11/04 05:19:23;;;;;;;2.20;1.50;;;12.70;93.30;;;;;;4984720;28;20442;-73
2023/11/04 05:22:13;;;;;;;1.60;1.50;;;12.80;93.40;;;;;;4964212;28;20594;-72
2023/11/04 05:25:03;;;;;;;1.53;1.43;;;12.80;93.40;;;;;;4974324;28;20471;-72
2023/11/04 05:27:52;;;;;;;2.07;1.70;;;12.80;93.40;;;;;;4961641;28;21173;-72
2023/11/04 05:30:38;;;;;;;1.50;1.40;;;12.80;93.40;;;;;;4988360;28;20504;-72
2023/11/04 05:33:25;;;;;;;1.67;1.57;;;12.80;93.40;;;;;;4983096;28;20912;-72
2023/11/04 05:36:11;;;;;;;1.60;1.50;;;12.80;93.40;;;;;;4988805;28;20440;-72
2023/11/04 05:38:57;;;;;;;4.00;1.70;;;12.80;93.40;;;;;;4988456;28;20438;-72
2023/11/04 05:41:45;;;;;;;3.77;2.10;;;12.80;93.50;;;;;;4997137;28;20453;-72
2023/11/04 05:44:33;;;;;;;2.17;1.40;;;12.70;93.40;;;;;;4969745;28;20523;-72
2023/11/04 05:47:19;;;;;;;1.80;1.70;;;12.80;93.50;;;;;;4997250;28;20427;-72
2023/11/04 05:50:05;;;;;;;1.80;1.70;;;12.70;93.50;;;;;;4978597;28;20960;-72
2023/11/04 05:52:51;;;;;;;1.60;1.50;;;12.80;93.50;;;;;;4994219;28;20506;-72
2023/11/04 05:55:37;;;;;;;1.60;1.50;;;12.70;93.50;;;;;;4989331;28;20439;-72
2023/11/04 05:58:23;;;;;;;1.77;1.23;;;12.70;93.50;;;;;;4989719;28;20464;-72
2023/11/04 06:01:12;;;;;;;1.63;1.53;;;12.80;93.50;;;;;;4976722;28;20452;-72
2023/11/04 06:03:58;;;;;;;1.90;1.50;;;12.80;93.60;;;;;;4997023;28;20560;-72
2023/11/04 06:06:44;;;;;;;1.80;1.70;;;12.80;93.60;;;;;;4983773;28;20449;-72
2023/11/04 06:09:34;;;;;;;2.30;2.10;;;12.80;94.00;;;;;;4980933;28;20502;-72
2023/11/04 06:12:23;;;;;;;1.60;1.50;;;12.70;93.50;;;;;;4958439;28;20522;-72
2023/11/04 06:15:10;;;;;;;1.80;1.70;;;12.80;93.60;;;;;;4977529;28;20886;-72
2023/11/04 06:17:56;;;;;;;1.83;1.73;;;12.70;93.60;;;;;;4994939;28;20448;-74
2023/11/04 06:20:42;;;;;;;1.70;1.60;;;12.70;93.60;;;;;;4980666;28;20494;-75
2023/11/04 06:23:28;;;;;;;2.20;2.00;;;12.70;93.60;;;;;;4973032;28;20493;-74
2023/11/04 06:26:20;;;;;;;1.60;1.50;;;12.70;93.60;;;;;;4988302;28;20433;-74
2023/11/04 06:29:06;;;;;;;2.50;1.60;;;12.70;93.70;;;;;;4987690;28;20436;-74
2023/11/04 06:31:54;;;;;;;1.70;1.60;;;12.70;93.70;;;;;;4965092;28;20506;-74
2023/11/04 06:34:40;;;;;;;1.97;1.87;;;12.70;93.70;;;;;;4984610;28;20893;-75
2023/11/04 06:37:26;;;;;;;1.70;1.60;;;12.70;93.70;;;;;;4996888;28;20549;-74
2023/11/04 06:40:13;;;;;;;1.97;1.87;;;12.70;93.70;;;;;;4987635;28;20452;-75
2023/11/04 06:42:59;;;;;;;1.90;1.80;;;12.70;93.70;;;;;;4978636;28;20841;-74
2023/11/04 06:45:45;;;;;;;1.77;1.67;;;12.70;93.70;;;;;;4999342;28;20839;-74
2023/11/04 06:48:30;;;;;;;1.40;1.30;;;12.70;93.80;;;;;;4999500;28;20444;-74
2023/11/04 06:51:18;;;;;;;2.53;1.70;;;12.70;93.80;;;;;;4986174;28;20566;-74
2023/11/04 06:53:44;;;;;;;1.70;1.60;;;12.70;93.80;;;;;;4987795;28;20454;-75
2023/11/04 06:56:10;;;;;;;1.70;1.60;;;12.70;93.80;;;;;;4976493;28;20643;-74
2023/11/04 06:58:36;;;;;;;1.30;1.20;;;12.70;93.80;;;;;;4974472;28;20447;-74
2023/11/04 07:01:02;;;;;;;1.90;1.70;;;12.70;93.80;;;;;;4987177;28;20436;-74
2023/11/04 07:03:29;;;;;;;1.77;1.60;;;12.70;93.80;;;;;;4987281;28;20484;-74
2023/11/04 07:05:56;;;;;;;1.70;1.60;;;12.70;93.80;;;;;;4966599;28;21036;-75
2023/11/04 07:08:21;;;;;;;1.90;1.80;;;12.70;93.80;;;;;;5000547;28;20466;-74
2023/11/04 07:10:48;;;;;;;1.33;1.30;;;12.70;93.90;;;;;;4983481;28;20974;-74
2023/11/04 07:13:14;;;;;;;1.97;1.80;;;12.70;93.90;;;;;;4978313;28;20461;-74
2023/11/04 07:15:45;;;;;;;1.90;1.77;;;12.70;93.90;;;;;;4980567;28;20463;-74
2023/11/04 07:18:15;;;;;;;1.80;1.70;;;12.70;93.90;;;;;;4992969;28;20423;-74
2023/11/04 07:20:41;;;;;;;1.80;1.53;;;12.70;93.90;;;;;;4999639;28;20456;-74
2023/11/04 07:23:13;;;;;;;1.57;1.20;;;12.70;93.90;;;;;;4997123;28;20476;-74
2023/11/04 07:26:04;;;;;;;1.60;1.50;;;12.70;93.90;;;;;;4998789;28;20426;-74
2023/11/04 07:28:36;;;;;;;1.60;1.50;;;12.70;93.90;;;;;;4981968;28;20986;-74
2023/11/04 07:31:07;;;;;;;1.60;1.50;;;12.70;93.90;;;;;;4985067;28;21075;-74
2023/11/04 07:33:34;;;;;;;1.87;1.53;;;12.70;93.90;;;;;;4992104;28;21025;-75
2023/11/04 07:36:02;;;;;;;1.67;1.57;;;12.70;94.00;;;;;;4965641;28;20490;-75
2023/11/04 07:38:31;;;;;;;2.00;1.40;;;12.70;94.00;;;;;;4982668;28;20434;-75
2023/11/04 07:40:57;;;;;;;2.47;1.60;;;12.60;94.00;;;;;;4981303;28;20434;-73
2023/11/04 07:43:25;;;;;;;1.60;1.50;;;12.70;94.00;;;;;;5000930;28;20474;-73
2023/11/04 07:45:51;;;;;;;1.63;1.53;;;12.70;94.00;;;;;;4982802;28;21299;-74
2023/11/04 07:48:18;;;;;;;1.63;1.53;;;12.70;94.00;;;;;;4984961;28;20476;-72
2023/11/04 07:50:51;;;;;;;1.60;1.40;;;12.70;94.00;;;;;;4971855;28;20444;-74
2023/11/04 07:53:19;;;;;;;1.43;1.27;;;12.70;94.00;;;;;;4976357;28;21319;-72
2023/11/04 07:55:46;;;;;;;1.30;1.20;;;12.70;94.00;;;;;;4972589;28;20436;-75
2023/11/04 07:58:12;;;;;;;1.93;1.83;;;12.70;94.00;;;;;;4989799;28;20437;-73
2023/11/04 08:00:43;;;;;;;2.30;1.30;;;12.70;94.10;;;;;;4997967;28;20431;-72
2023/11/04 08:03:10;;;;;;;2.77;1.70;;;12.70;94.10;;;;;;4980839;28;20873;-74
2023/11/04 08:05:40;;;;;;;1.40;1.30;;;12.70;94.10;;;;;;4996896;28;20527;-72
2023/11/04 08:08:07;;;;;;;1.50;1.40;;;12.70;94.10;;;;;;4980317;28;21038;-75
2023/11/04 08:10:35;;;;;;;2.70;1.20;;;12.70;94.20;;;;;;4998395;28;20535;-74
2023/11/04 08:13:01;;;;;;;1.30;1.20;;;12.70;94.20;;;;;;4982881;28;20447;-75
2023/11/04 08:15:27;;;;;;;1.60;1.50;;;12.70;94.20;;;;;;4989700;28;20540;-77
2023/11/04 08:17:53;;;;;;;2.47;2.13;;;12.70;94.20;;;;;;4962979;28;20512;-76
2023/11/04 08:20:19;;;;;;;2.90;1.30;;;12.70;94.20;;;;;;4996800;28;20581;-75
2023/11/04 08:22:46;;;;;;;1.60;1.50;;;12.70;94.30;;;;;;4972524;28;20529;-75
2023/11/04 08:25:14;;;;;;;1.53;1.43;;;12.70;94.40;;;;;;4997589;28;20435;-72
2023/11/04 08:27:42;;;;;;;1.40;1.30;;;12.70;94.40;;;;;;4980435;28;20417;-74
2023/11/04 08:30:12;;;;;;;1.67;1.57;;;12.70;94.40;;;;;;4980573;28;20871;-73
2023/11/04 08:32:40;;;;;;;3.20;1.40;;;12.70;94.50;;;;;;4983887;28;20445;-75
2023/11/04 08:35:06;;;;;;;5.00;1.70;;;12.70;94.50;;;;;;4998232;28;20551;-73
2023/11/04 08:37:34;;;;;;;1.70;1.60;;;12.70;94.50;;;;;;4981664;28;20945;-74
2023/11/04 08:40:00;;;;;;;1.67;1.57;;;12.70;94.50;;;;;;4968239;28;20509;-77
2023/11/04 08:42:27;;;;;;;1.60;1.40;;;12.70;94.60;;;;;;4996660;28;20495;-73
2023/11/04 08:44:53;;;;;;;2.00;1.90;;;12.70;94.60;;;;;;4981567;28;21110;-74
2023/11/04 08:47:22;;;;;;;1.70;1.60;;;12.70;94.60;;;;;;4987175;28;21222;-74
2023/11/04 08:49:48;;;;;;;1.50;1.40;;;12.70;94.60;;;;;;4963240;28;21323;-74
2023/11/04 08:52:14;;;;;;;1.60;1.50;;;12.70;94.60;;;;;;4988639;28;21304;-74
2023/11/04 08:54:42;;;;;;;1.97;1.37;;;12.70;94.70;;;;;;4984321;28;20452;-75
2023/11/04 08:57:08;;;;;;;1.10;1.07;;;12.80;94.70;;;;;;4980305;28;20448;-74
2023/11/04 08:59:40;;;;;;;2.00;1.50;;;12.70;94.60;;;;;;4972266;28;20444;-73
2023/11/04 09:02:06;;;;;;;2.23;1.30;;;12.70;94.70;;;;;;4966660;28;20456;-73
2023/11/04 09:04:35;;;;;;;1.53;1.43;;;12.80;94.80;;;;;;4986282;28;21233;-74
2023/11/04 09:07:01;;;;;;;1.97;1.70;;;12.80;94.80;;;;;;4995764;28;20464;-73
2023/11/04 09:09:30;;;;;;;1.83;1.73;;;12.80;94.80;;;;;;4987623;28;20455;-73
2023/11/04 09:11:56;;;;;;;2.63;2.43;;;12.80;94.80;;;;;;4969530;28;20844;-73
2023/11/04 09:14:25;;;;;;;2.10;1.90;;;12.80;94.80;;;;;;4996849;28;20424;-72
2023/11/04 09:16:51;;;;;;;2.13;1.67;;;12.80;94.80;;;;;;4963755;28;20439;-72
2023/11/04 09:19:19;;;;;;;1.60;1.50;;;12.80;94.80;;;;;;4979348;28;20451;-75
2023/11/04 09:21:48;;;;;;;2.03;1.83;;;12.80;94.80;;;;;;4992863;28;21015;-74
2023/11/04 09:24:14;;;;;;;2.17;1.50;;;12.80;94.80;;;;;;4987789;28;20538;-74
2023/11/04 09:26:44;;;;;;;2.60;1.30;;;12.80;94.80;;;;;;4996718;28;20533;-75
2023/11/04 09:29:10;;;;;;;1.90;1.80;;;12.80;94.80;;;;;;4995821;28;21319;-73
2023/11/04 09:31:36;;;;;;;1.80;1.70;;;12.80;94.90;;;;;;4979496;28;20431;-73
2023/11/04 09:34:08;;;;;;;1.90;1.80;;;12.80;94.90;;;;;;4995752;28;20445;-75
2023/11/04 09:36:35;;;;;;;1.60;1.50;;;12.80;94.90;;;;;;4997343;28;20954;-76
2023/11/04 09:39:04;;;;;;;1.83;1.73;;;12.90;94.90;;;;;;4980557;28;20416;-73
2023/11/04 09:41:32;;;;;;;2.03;1.83;;;12.80;94.90;;;;;;4980644;28;21146;-73
2023/11/04 09:44:05;;;;;;;2.03;1.63;;;12.90;94.90;;;;;;4981125;28;21040;-74
2023/11/04 09:46:35;;;;;;;2.40;2.20;;;12.80;94.90;;;;;;4979419;28;20483;-74
2023/11/04 09:49:04;;;;;;;1.80;1.70;;;12.80;94.80;;;;;;4979227;28;20473;-76
2023/11/04 09:51:32;;;;;;;1.83;1.73;;;12.90;94.90;;;;;;4994046;28;21028;-75
2023/11/04 09:54:00;;;;;;;1.63;1.53;;;12.90;95.00;;;;;;4978143;28;20818;-73
2023/11/04 09:56:31;;;;;;;1.90;1.80;;;12.90;95.00;;;;;;4994335;28;20452;-76
2023/11/04 09:59:04;;;;;;;1.60;1.50;;;12.90;95.00;;;;;;4978716;28;20421;-73
2023/11/04 10:01:30;;;;;;;2.37;2.17;;;12.90;95.00;;;;;;4963308;28;20830;-75
2023/11/04 10:03:56;;;;;;;1.70;1.60;;;12.90;95.30;;;;;;4995961;28;20519;-75
2023/11/04 10:06:22;;;;;;;1.63;1.40;;;12.90;94.90;;;;;;4996978;28;20903;-75
2023/11/04 10:08:49;;;;;;;2.30;2.00;;;12.90;94.90;;;;;;4979528;28;20804;-74
2023/11/04 10:11:17;;;;;;;3.60;2.07;;;12.90;94.90;;;;;;4994618;28;20500;-75
2023/11/04 10:13:43;;;;;;;2.00;1.90;;;12.90;94.90;;;;;;4987639;28;20467;-76
2023/11/04 10:16:13;;;;;;;2.20;1.80;;;12.90;94.90;;;;;;4986346;28;20843;-75
2023/11/04 10:18:41;;;;;;;1.80;1.70;;;12.90;94.90;;;;;;4971436;28;20425;-74
2023/11/04 10:21:08;;;;;;;2.03;1.77;;;12.90;94.90;;;;;;4975391;28;20456;-74
2023/11/04 10:26:17;;;;;;;2.90;1.60;;;13.00;94.90;;;;;;5141282;27;20572;-73
2023/11/04 10:28:44;;;;;;;2.00;1.53;;;13.00;94.80;;;;;;5094557;27;20454;-73
2023/11/04 10:31:15;;;;;;;2.00;1.90;;;13.00;95.10;;;;;;5134933;27;20431;-73
2023/11/04 10:33:47;;;;;;;3.33;1.80;;;13.00;94.70;;;;;;5112337;27;20457;-73
2023/11/04 10:36:17;;;;;;;1.50;1.40;;;13.00;94.80;;;;;;5125261;27;20908;-73
2023/11/04 10:38:56;;;;;;;2.37;1.90;;;13.00;94.70;;;;;;5132765;27;20198;-76
2023/11/04 10:41:48;;;;;;;2.53;1.90;;;13.10;94.60;;;;;;5132769;27;20448;-74
2023/11/04 10:44:25;;;;;;;1.90;1.80;;;13.10;94.60;;;;;;5101096;27;20475;-74
2023/11/04 10:46:58;;;;;;;1.70;1.60;;;13.10;94.60;;;;;;5115700;27;20424;-72
2023/11/04 10:49:44;;;;;;;3.07;2.23;;;13.00;94.50;;;;;;5117034;27;21258;-75
2023/11/04 10:52:18;;;;;;;2.07;1.87;;;13.00;94.60;;;;;;5133955;27;20442;-75
2023/11/04 10:54:44;;;;;;;2.00;1.77;;;13.00;94.60;;;;;;5133849;27;20671;-73
2023/11/04 10:57:22;;;;;;;2.30;2.00;;;13.10;94.60;;;;;;5116415;27;20549;-73
2023/11/04 11:00:19;;;;;;;1.97;1.87;;;13.00;94.60;;;;;;5116400;27;20440;-73
2023/11/04 11:02:47;;;;;;;2.95;2.08;;;13.10;94.60;;;;;;5127224;27;20674;-72
2023/11/04 11:05:15;;;;;;;2.50;1.70;;;13.10;94.60;;;;;;5135957;27;20232;-74
2023/11/04 11:07:46;;;;;;;1.70;1.60;;;13.10;94.50;;;;;;5134022;27;20524;-74
2023/11/04 11:10:43;;;;;;;1.90;1.80;;;13.10;94.50;;;;;;5136089;27;20418;-76
2023/11/04 11:13:21;;;;;;;1.85;1.75;;;13.10;94.40;;;;;;5092824;27;20468;-75
2023/11/04 11:15:52;;;;;;;1.77;1.67;;;13.10;94.40;;;;;;5096956;27;20846;-73
2023/11/04 11:18:26;;;;;;;1.97;1.77;;;13.20;94.40;;;;;;5114934;27;20452;-71
2023/11/04 11:20:53;;;;;;;2.10;2.00;;;13.20;94.30;;;;;;5099344;27;20423;-70
2023/11/04 11:23:26;;;;;;;1.87;1.57;;;13.20;94.30;;;;;;5122424;27;20978;-70
2023/11/04 11:26:04;;;;;;;2.10;1.90;;;13.10;94.30;;;;;;5116250;27;20477;-72
2023/11/04 11:28:37;;;;;;;2.47;2.27;;;13.10;94.40;;;;;;5091700;28;20450;-76
2023/11/04 11:31:11;;;;;;;5.60;2.05;;;13.20;94.50;;;;;;5089892;27;20441;-72
2023/11/04 11:33:43;;;;;;;1.95;1.85;;;13.10;94.50;;;;;;5131066;27;20197;-73
2023/11/04 11:36:17;;;;;;;2.33;1.80;;;13.20;94.40;;;;;;5125781;27;20212;-72
2023/11/04 11:38:43;;;;;;;3.20;2.27;;;13.20;94.40;;;;;;5100771;27;21133;-74
2023/11/04 11:41:16;;;;;;;2.23;1.63;;;13.20;94.50;;;;;;5119120;27;21034;-74
2023/11/04 11:43:43;;;;;;;2.80;2.50;;;13.20;94.50;;;;;;5118271;27;20537;-73
2023/11/04 11:46:09;;;;;;;2.63;2.13;;;13.20;94.60;;;;;;5118648;27;20755;-74
2023/11/04 11:48:45;;;;;;;4.07;2.20;;;13.20;94.70;;;;;;5101977;27;20520;-74
2023/11/04 11:51:13;;;;;;;2.25;2.15;;;13.10;94.80;;;;;;5120381;27;20958;-73
2023/11/04 11:53:43;;;;;;;3.20;2.20;;;13.20;95.00;;;;;;5098967;27;20204;-74
2023/11/04 11:56:11;;;;;;;6.00;1.93;;;13.20;95.30;;;;;;5119940;27;20451;-73
2023/11/04 11:58:37;;;;;;;3.80;2.00;;;13.20;95.10;;;;;;5118014;27;20434;-74
2023/11/04 12:01:08;;;;;;;2.10;1.87;;;13.20;95.10;;;;;;5119870;27;20727;-74
2023/11/04 12:03:37;;;;;;;2.40;2.20;;;13.20;95.20;;;;;;5101528;27;20447;-74
2023/11/04 12:06:08;;;;;;;2.00;1.63;;;13.20;95.30;;;;;;5086755;27;20214;-76
2023/11/04 12:08:34;;;;;;;2.60;2.20;;;13.30;95.20;;;;;;5084621;28;20865;-75
2023/11/04 12:11:00;;;;;;;5.77;2.37;;;13.20;95.20;;;;;;5094730;28;20425;-73
2023/11/04 12:13:26;;;;;;;3.60;1.93;;;13.20;95.30;;;;;;5108905;27;20496;-75
2023/11/04 12:15:55;;;;;;;2.10;1.80;;;13.20;95.40;;;;;;5082407;28;20962;-70
2023/11/04 12:18:21;;;;;;;3.27;2.37;;;13.20;95.50;;;;;;5101351;27;20422;-70
2023/11/04 12:20:48;;;;;;;2.03;1.88;;;13.20;95.60;;;;;;5099239;27;20484;-71
2023/11/04 12:23:15;;;;;;;5.15;2.00;;;13.20;95.70;;;;;;5082247;27;20221;-72
2023/11/04 12:25:42;;;;;;;2.87;1.90;;;13.30;95.70;;;;;;5075452;28;20218;-72
2023/11/04 12:28:09;;;;;;;2.20;1.90;;;13.30;95.60;;;;;;5113233;27;20417;-72
2023/11/04 12:30:37;;;;;;;2.50;2.10;;;13.30;95.50;;;;;;5101222;27;20241;-72
2023/11/04 12:33:04;;;;;;;2.60;1.90;;;13.40;95.60;;;;;;5102946;27;20208;-71
2023/11/04 12:35:30;;;;;;;3.25;2.00;;;13.40;95.60;;;;;;5119761;27;20454;-71
2023/11/04 12:38:00;;;;;;;2.88;2.10;;;13.40;95.60;;;;;;5098690;27;20236;-72
2023/11/04 12:40:29;;;;;;;4.03;2.00;;;13.40;95.50;;;;;;5115771;27;20200;-72
2023/11/04 12:43:07;;;;;;;2.75;1.85;;;13.40;95.50;;;;;;5115248;27;20524;-72
2023/11/04 12:45:38;;;;;;;2.70;1.80;;;13.40;95.50;;;;;;5077256;28;20229;-72
2023/11/04 12:48:11;;;;;;;1.97;1.70;;;13.40;95.50;;;;;;5106344;27;20589;-72
2023/11/04 12:50:37;;;;;;;2.70;1.60;;;13.40;95.60;;;;;;5114684;27;20441;-73
2023/11/04 12:53:06;;;;;;;2.10;1.67;;;13.30;95.60;;;;;;5115322;27;21038;-71
2023/11/04 12:55:35;;;;;;;3.85;2.20;;;13.30;95.70;;;;;;5091852;28;20940;-72
2023/11/04 12:58:06;;;;;;;2.70;2.50;;;13.30;95.80;;;;;;5088879;28;20220;-73
2023/11/04 13:00:33;;;;;;;2.40;2.20;;;13.30;95.80;;;;;;5073360;28;20905;-71
2023/11/04 13:03:02;;;;;;;4.80;2.07;;;13.30;95.90;;;;;;5117008;27;20523;-72
2023/11/04 13:05:30;;;;;;;2.10;1.90;;;13.30;96.00;;;;;;5118106;27;20467;-71
2023/11/04 13:07:56;;;;;;;2.30;2.10;;;13.30;96.00;;;;;;5112336;27;20433;-77
2023/11/04 13:10:25;;;;;;;2.30;2.10;;;13.30;96.20;;;;;;5108045;27;20547;-71
2023/11/04 13:12:54;;;;;;;2.10;1.70;;;13.30;96.20;;;;;;5086461;28;20509;-71
2023/11/04 13:15:20;;;;;;;2.93;1.83;;;13.30;96.30;;;;;;5077837;28;20205;-71
2023/11/04 13:17:46;;;;;;;1.77;1.67;;;13.30;96.30;;;;;;5105417;27;20473;-71
2023/11/04 13:20:17;;;;;;;3.33;1.60;;;13.30;96.30;;;;;;5113945;27;21233;-70
2023/11/04 13:22:45;;;;;;;2.30;2.07;;;13.30;96.40;;;;;;5112201;27;20517;-70
2023/11/04 13:25:11;;;;;;;2.13;2.00;;;13.20;96.50;;;;;;5114165;27;20901;-70
2023/11/04 13:27:37;;;;;;;1.87;1.77;;;13.20;96.60;;;;;;5096693;27;20545;-72
2023/11/04 13:30:04;;;;;;;2.33;1.97;;;13.20;96.70;;;;;;5109508;27;20544;-71
2023/11/04 13:32:32;;;;;;;2.13;2.00;;;13.20;96.70;;;;;;5076179;27;20447;-70
2023/11/04 13:35:00;;;;;;;2.07;1.77;;;13.20;96.70;;;;;;5117159;27;20491;-71
2023/11/04 13:37:29;;;;;;;2.00;1.80;;;13.20;96.80;;;;;;5117023;27;20431;-71
2023/11/04 13:39:58;;;;;;;1.87;1.70;;;13.20;96.90;;;;;;5116099;27;20503;-71